sensor_id;sensor_type;location;lat;lon;timestamp;P1;durP1;ratioP1;P2;durP2;ratioP2
10430;SDS011;5262;59.958;17.726;2024-01-30T00:02:21;19.73;;;7.53;;
10430;SDS011;5262;59.958;17.726;2024-01-30T00:04:46;16.57;;;6.33;;
10430;SDS011;5262;59.958;17.726;2024-01-30T00:07:12;14.00;;;5.70;;
10430;SDS011;5262;59.958;17.726;2024-01-30T00:09:38;16.77;;;6.07;;
10430;SDS011;5262;59.958;17.726;2024-01-30T00:12:05;12.97;;;5.77;;
10430;SDS011;5262;59.958;17.726;2024-01-30T00:14:31;10.37;;;5.23;;
10430;SDS011;5262;59.958;17.726;2024-01-30T00:16:57;14.47;;;6.07;;
10430;SDS011;5262;59.958;17.726;2024-01-30T00:19:22;13.17;;;4.90;;
10430;SDS011;5262;59.958;17.726;2024-01-30T00:21:48;9.80;;;4.83;;
10430;SDS011;5262;59.958;17.726;2024-01-30T00:24:13;10.13;;;5.27;;
10430;SDS011;5262;59.958;17.726;2024-01-30T00:26:39;11.90;;;5.50;;
10430;SDS011;5262;59.958;17.726;2024-01-30T00:29:05;13.87;;;5.60;;
10430;SDS011;5262;59.958;17.726;2024-01-30T00:31:30;19.57;;;5.63;;
10430;SDS011;5262;59.958;17.726;2024-01-30T00:33:56;16.43;;;5.40;;
10430;SDS011;5262;59.958;17.726;2024-01-30T00:36:22;13.87;;;5.70;;
10430;SDS011;5262;59.958;17.726;2024-01-30T00:38:47;14.30;;;5.77;;
10430;SDS011;5262;59.958;17.726;2024-01-30T00:41:13;12.90;;;5.13;;
10430;SDS011;5262;59.958;17.726;2024-01-30T00:43:39;15.67;;;6.03;;
10430;SDS011;5262;59.958;17.726;2024-01-30T00:46:05;17.33;;;6.33;;
10430;SDS011;5262;59.958;17.726;2024-01-30T00:48:30;15.20;;;5.93;;
10430;SDS011;5262;59.958;17.726;2024-01-30T00:50:56;18.77;;;5.83;;
10430;SDS011;5262;59.958;17.726;2024-01-30T00:53:22;18.17;;;6.10;;
10430;SDS011;5262;59.958;17.726;2024-01-30T00:55:47;18.90;;;5.73;;
10430;SDS011;5262;59.958;17.726;2024-01-30T00:58:13;12.87;;;5.03;;
10430;SDS011;5262;59.958;17.726;2024-01-30T01:00:39;14.63;;;5.80;;
10430;SDS011;5262;59.958;17.726;2024-01-30T01:03:04;11.77;;;6.43;;
10430;SDS011;5262;59.958;17.726;2024-01-30T01:05:30;17.40;;;6.63;;
10430;SDS011;5262;59.958;17.726;2024-01-30T01:07:55;14.20;;;6.53;;
10430;SDS011;5262;59.958;17.726;2024-01-30T01:10:21;14.47;;;6.20;;
10430;SDS011;5262;59.958;17.726;2024-01-30T01:12:47;18.23;;;6.47;;
10430;SDS011;5262;59.958;17.726;2024-01-30T01:15:13;19.10;;;6.00;;
10430;SDS011;5262;59.958;17.726;2024-01-30T01:17:39;17.00;;;5.93;;
10430;SDS011;5262;59.958;17.726;2024-01-30T01:20:05;15.77;;;6.00;;
10430;SDS011;5262;59.958;17.726;2024-01-30T01:22:32;17.90;;;6.80;;
10430;SDS011;5262;59.958;17.726;2024-01-30T01:24:58;18.47;;;7.57;;
10430;SDS011;5262;59.958;17.726;2024-01-30T01:27:24;33.40;;;9.10;;
10430;SDS011;5262;59.958;17.726;2024-01-30T01:29:50;33.83;;;8.00;;
10430;SDS011;5262;59.958;17.726;2024-01-30T01:32:17;30.30;;;8.73;;
10430;SDS011;5262;59.958;17.726;2024-01-30T01:34:42;27.50;;;8.57;;
10430;SDS011;5262;59.958;17.726;2024-01-30T01:37:08;28.83;;;8.07;;
10430;SDS011;5262;59.958;17.726;2024-01-30T01:39:33;38.73;;;9.30;;
10430;SDS011;5262;59.958;17.726;2024-01-30T01:41:59;23.30;;;9.60;;
10430;SDS011;5262;59.958;17.726;2024-01-30T01:44:25;34.23;;;9.83;;
10430;SDS011;5262;59.958;17.726;2024-01-30T01:46:51;38.27;;;10.60;;
10430;SDS011;5262;59.958;17.726;2024-01-30T01:49:17;40.20;;;11.93;;
10430;SDS011;5262;59.958;17.726;2024-01-30T01:51:44;36.33;;;10.83;;
10430;SDS011;5262;59.958;17.726;2024-01-30T01:54:12;34.00;;;11.23;;
10430;SDS011;5262;59.958;17.726;2024-01-30T01:56:38;34.27;;;10.13;;
10430;SDS011;5262;59.958;17.726;2024-01-30T01:59:07;32.47;;;9.33;;
10430;SDS011;5262;59.958;17.726;2024-01-30T02:01:34;32.33;;;9.53;;
10430;SDS011;5262;59.958;17.726;2024-01-30T02:04:03;30.97;;;10.87;;
10430;SDS011;5262;59.958;17.726;2024-01-30T02:06:29;39.50;;;10.30;;
10430;SDS011;5262;59.958;17.726;2024-01-30T02:08:55;37.13;;;10.33;;
10430;SDS011;5262;59.958;17.726;2024-01-30T02:11:21;41.43;;;10.40;;
10430;SDS011;5262;59.958;17.726;2024-01-30T02:13:48;26.80;;;9.40;;
10430;SDS011;5262;59.958;17.726;2024-01-30T02:16:14;24.83;;;9.10;;
10430;SDS011;5262;59.958;17.726;2024-01-30T02:18:39;27.33;;;9.53;;
10430;SDS011;5262;59.958;17.726;2024-01-30T02:21:10;23.07;;;8.67;;
10430;SDS011;5262;59.958;17.726;2024-01-30T02:23:37;21.50;;;8.03;;
10430;SDS011;5262;59.958;17.726;2024-01-30T02:26:04;26.17;;;8.20;;
10430;SDS011;5262;59.958;17.726;2024-01-30T02:28:30;21.53;;;8.07;;
10430;SDS011;5262;59.958;17.726;2024-01-30T02:30:55;18.77;;;7.77;;
10430;SDS011;5262;59.958;17.726;2024-01-30T02:33:21;17.77;;;7.43;;
10430;SDS011;5262;59.958;17.726;2024-01-30T02:35:47;23.97;;;7.63;;
10430;SDS011;5262;59.958;17.726;2024-01-30T02:38:13;16.17;;;7.40;;
10430;SDS011;5262;59.958;17.726;2024-01-30T02:40:40;19.07;;;7.80;;
10430;SDS011;5262;59.958;17.726;2024-01-30T02:43:06;18.07;;;7.63;;
10430;SDS011;5262;59.958;17.726;2024-01-30T02:45:31;16.10;;;6.83;;
10430;SDS011;5262;59.958;17.726;2024-01-30T02:47:57;17.20;;;6.50;;
10430;SDS011;5262;59.958;17.726;2024-01-30T02:50:23;13.77;;;6.53;;
10430;SDS011;5262;59.958;17.726;2024-01-30T02:52:48;13.93;;;6.10;;
10430;SDS011;5262;59.958;17.726;2024-01-30T02:55:14;14.43;;;5.73;;
10430;SDS011;5262;59.958;17.726;2024-01-30T02:57:42;15.50;;;6.17;;
10430;SDS011;5262;59.958;17.726;2024-01-30T03:00:08;18.83;;;6.50;;
10430;SDS011;5262;59.958;17.726;2024-01-30T03:02:34;14.40;;;6.33;;
10430;SDS011;5262;59.958;17.726;2024-01-30T03:05:00;16.17;;;7.60;;
10430;SDS011;5262;59.958;17.726;2024-01-30T03:07:26;16.40;;;6.30;;
10430;SDS011;5262;59.958;17.726;2024-01-30T03:09:52;16.20;;;7.43;;
10430;SDS011;5262;59.958;17.726;2024-01-30T03:12:17;20.20;;;5.93;;
10430;SDS011;5262;59.958;17.726;2024-01-30T03:14:43;18.30;;;6.53;;
10430;SDS011;5262;59.958;17.726;2024-01-30T03:17:09;16.07;;;6.70;;
10430;SDS011;5262;59.958;17.726;2024-01-30T03:19:34;13.33;;;6.13;;
10430;SDS011;5262;59.958;17.726;2024-01-30T03:22:00;16.67;;;6.87;;
10430;SDS011;5262;59.958;17.726;2024-01-30T03:24:26;19.13;;;7.07;;
10430;SDS011;5262;59.958;17.726;2024-01-30T03:26:51;13.60;;;7.27;;
10430;SDS011;5262;59.958;17.726;2024-01-30T03:29:18;18.43;;;6.90;;
10430;SDS011;5262;59.958;17.726;2024-01-30T03:31:43;16.00;;;6.57;;
10430;SDS011;5262;59.958;17.726;2024-01-30T03:34:09;16.67;;;6.77;;
10430;SDS011;5262;59.958;17.726;2024-01-30T03:36:35;17.07;;;6.63;;
10430;SDS011;5262;59.958;17.726;2024-01-30T03:39:00;18.13;;;6.33;;
10430;SDS011;5262;59.958;17.726;2024-01-30T03:41:26;13.57;;;6.57;;
10430;SDS011;5262;59.958;17.726;2024-01-30T03:43:52;17.27;;;5.83;;
10430;SDS011;5262;59.958;17.726;2024-01-30T03:46:18;12.43;;;6.27;;
10430;SDS011;5262;59.958;17.726;2024-01-30T03:48:44;9.90;;;6.23;;
10430;SDS011;5262;59.958;17.726;2024-01-30T03:51:11;15.17;;;6.43;;
10430;SDS011;5262;59.958;17.726;2024-01-30T03:53:41;11.97;;;5.87;;
10430;SDS011;5262;59.958;17.726;2024-01-30T03:56:07;15.57;;;6.43;;
10430;SDS011;5262;59.958;17.726;2024-01-30T03:58:33;13.53;;;6.33;;
10430;SDS011;5262;59.958;17.726;2024-01-30T04:00:59;12.67;;;6.57;;
10430;SDS011;5262;59.958;17.726;2024-01-30T04:03:24;11.37;;;6.13;;
10430;SDS011;5262;59.958;17.726;2024-01-30T04:05:51;14.43;;;6.00;;
10430;SDS011;5262;59.958;17.726;2024-01-30T04:08:17;13.43;;;6.47;;
10430;SDS011;5262;59.958;17.726;2024-01-30T04:10:43;15.10;;;6.07;;
10430;SDS011;5262;59.958;17.726;2024-01-30T04:13:10;12.50;;;5.90;;
10430;SDS011;5262;59.958;17.726;2024-01-30T04:15:36;14.03;;;6.07;;
10430;SDS011;5262;59.958;17.726;2024-01-30T04:18:02;13.63;;;6.00;;
10430;SDS011;5262;59.958;17.726;2024-01-30T04:20:29;15.10;;;6.37;;
10430;SDS011;5262;59.958;17.726;2024-01-30T04:22:55;14.53;;;6.23;;
10430;SDS011;5262;59.958;17.726;2024-01-30T04:25:20;16.87;;;6.77;;
10430;SDS011;5262;59.958;17.726;2024-01-30T04:27:46;16.27;;;6.30;;
10430;SDS011;5262;59.958;17.726;2024-01-30T04:30:12;17.97;;;7.13;;
10430;SDS011;5262;59.958;17.726;2024-01-30T04:32:37;23.47;;;7.40;;
10430;SDS011;5262;59.958;17.726;2024-01-30T04:35:03;16.17;;;6.67;;
10430;SDS011;5262;59.958;17.726;2024-01-30T04:37:29;17.77;;;7.20;;
10430;SDS011;5262;59.958;17.726;2024-01-30T04:39:55;20.93;;;7.37;;
10430;SDS011;5262;59.958;17.726;2024-01-30T04:42:20;19.93;;;7.60;;
10430;SDS011;5262;59.958;17.726;2024-01-30T04:44:46;16.47;;;7.23;;
10430;SDS011;5262;59.958;17.726;2024-01-30T04:47:11;15.10;;;6.97;;
10430;SDS011;5262;59.958;17.726;2024-01-30T04:49:40;18.77;;;7.73;;
10430;SDS011;5262;59.958;17.726;2024-01-30T04:52:06;22.17;;;8.13;;
10430;SDS011;5262;59.958;17.726;2024-01-30T04:54:32;16.00;;;7.67;;
10430;SDS011;5262;59.958;17.726;2024-01-30T04:56:59;21.17;;;7.80;;
10430;SDS011;5262;59.958;17.726;2024-01-30T04:59:25;17.33;;;7.90;;
10430;SDS011;5262;59.958;17.726;2024-01-30T05:01:51;22.40;;;7.40;;
10430;SDS011;5262;59.958;17.726;2024-01-30T05:04:16;21.63;;;9.00;;
10430;SDS011;5262;59.958;17.726;2024-01-30T05:06:42;17.63;;;8.10;;
10430;SDS011;5262;59.958;17.726;2024-01-30T05:09:08;16.33;;;7.97;;
10430;SDS011;5262;59.958;17.726;2024-01-30T05:11:40;18.53;;;7.80;;
10430;SDS011;5262;59.958;17.726;2024-01-30T05:14:06;15.20;;;8.17;;
10430;SDS011;5262;59.958;17.726;2024-01-30T05:16:33;15.33;;;7.60;;
10430;SDS011;5262;59.958;17.726;2024-01-30T05:18:59;16.50;;;7.17;;
10430;SDS011;5262;59.958;17.726;2024-01-30T05:21:25;15.30;;;7.57;;
10430;SDS011;5262;59.958;17.726;2024-01-30T05:23:51;20.40;;;7.27;;
10430;SDS011;5262;59.958;17.726;2024-01-30T05:26:17;16.73;;;7.93;;
10430;SDS011;5262;59.958;17.726;2024-01-30T05:28:43;17.37;;;7.33;;
10430;SDS011;5262;59.958;17.726;2024-01-30T05:31:09;16.23;;;8.33;;
10430;SDS011;5262;59.958;17.726;2024-01-30T05:33:35;13.00;;;6.87;;
10430;SDS011;5262;59.958;17.726;2024-01-30T05:36:01;12.20;;;6.87;;
10430;SDS011;5262;59.958;17.726;2024-01-30T05:38:27;10.17;;;5.50;;
10430;SDS011;5262;59.958;17.726;2024-01-30T05:40:53;9.17;;;5.30;;
10430;SDS011;5262;59.958;17.726;2024-01-30T05:43:18;15.57;;;6.13;;
10430;SDS011;5262;59.958;17.726;2024-01-30T05:45:44;17.30;;;6.93;;
10430;SDS011;5262;59.958;17.726;2024-01-30T05:48:10;15.23;;;6.60;;
10430;SDS011;5262;59.958;17.726;2024-01-30T05:50:35;14.27;;;6.63;;
10430;SDS011;5262;59.958;17.726;2024-01-30T05:53:01;13.20;;;5.03;;
10430;SDS011;5262;59.958;17.726;2024-01-30T05:55:26;12.63;;;6.57;;
10430;SDS011;5262;59.958;17.726;2024-01-30T05:57:52;15.57;;;6.63;;
10430;SDS011;5262;59.958;17.726;2024-01-30T06:00:18;17.93;;;6.70;;
10430;SDS011;5262;59.958;17.726;2024-01-30T06:02:44;14.37;;;6.70;;
10430;SDS011;5262;59.958;17.726;2024-01-30T06:05:09;12.83;;;5.80;;
10430;SDS011;5262;59.958;17.726;2024-01-30T06:07:35;10.50;;;5.83;;
10430;SDS011;5262;59.958;17.726;2024-01-30T06:10:01;13.30;;;5.47;;
10430;SDS011;5262;59.958;17.726;2024-01-30T06:12:27;13.93;;;6.00;;
10430;SDS011;5262;59.958;17.726;2024-01-30T06:14:53;10.17;;;5.57;;
10430;SDS011;5262;59.958;17.726;2024-01-30T06:17:21;14.27;;;5.80;;
10430;SDS011;5262;59.958;17.726;2024-01-30T06:19:47;8.30;;;4.80;;
10430;SDS011;5262;59.958;17.726;2024-01-30T06:22:13;11.47;;;5.70;;
10430;SDS011;5262;59.958;17.726;2024-01-30T06:24:39;10.10;;;5.60;;
10430;SDS011;5262;59.958;17.726;2024-01-30T06:27:04;11.33;;;5.43;;
10430;SDS011;5262;59.958;17.726;2024-01-30T06:29:30;11.77;;;5.03;;
10430;SDS011;5262;59.958;17.726;2024-01-30T06:31:55;10.43;;;4.90;;
10430;SDS011;5262;59.958;17.726;2024-01-30T06:34:22;11.57;;;5.20;;
10430;SDS011;5262;59.958;17.726;2024-01-30T06:36:47;11.33;;;5.40;;
10430;SDS011;5262;59.958;17.726;2024-01-30T06:39:13;8.50;;;5.13;;
10430;SDS011;5262;59.958;17.726;2024-01-30T06:41:38;10.70;;;5.30;;
10430;SDS011;5262;59.958;17.726;2024-01-30T06:44:04;8.43;;;4.63;;
10430;SDS011;5262;59.958;17.726;2024-01-30T06:46:31;11.53;;;5.23;;
10430;SDS011;5262;59.958;17.726;2024-01-30T06:48:57;10.73;;;4.83;;
10430;SDS011;5262;59.958;17.726;2024-01-30T06:51:23;11.43;;;4.97;;
10430;SDS011;5262;59.958;17.726;2024-01-30T06:53:49;19.00;;;5.37;;
10430;SDS011;5262;59.958;17.726;2024-01-30T06:56:14;10.50;;;5.30;;
10430;SDS011;5262;59.958;17.726;2024-01-30T06:58:41;13.37;;;5.80;;
10430;SDS011;5262;59.958;17.726;2024-01-30T07:01:07;9.73;;;5.30;;
10430;SDS011;5262;59.958;17.726;2024-01-30T07:03:33;13.70;;;5.40;;
10430;SDS011;5262;59.958;17.726;2024-01-30T07:05:58;19.73;;;6.50;;
10430;SDS011;5262;59.958;17.726;2024-01-30T07:08:24;11.50;;;6.47;;
10430;SDS011;5262;59.958;17.726;2024-01-30T07:10:49;17.70;;;6.33;;
10430;SDS011;5262;59.958;17.726;2024-01-30T07:13:15;14.27;;;6.33;;
10430;SDS011;5262;59.958;17.726;2024-01-30T07:15:41;22.17;;;7.37;;
10430;SDS011;5262;59.958;17.726;2024-01-30T07:18:07;22.40;;;7.40;;
10430;SDS011;5262;59.958;17.726;2024-01-30T07:20:34;18.73;;;7.47;;
10430;SDS011;5262;59.958;17.726;2024-01-30T07:23:00;19.17;;;7.57;;
10430;SDS011;5262;59.958;17.726;2024-01-30T07:25:26;17.43;;;7.27;;
10430;SDS011;5262;59.958;17.726;2024-01-30T07:27:54;18.53;;;7.10;;
10430;SDS011;5262;59.958;17.726;2024-01-30T07:30:20;16.73;;;7.50;;
10430;SDS011;5262;59.958;17.726;2024-01-30T07:32:46;17.47;;;7.77;;
10430;SDS011;5262;59.958;17.726;2024-01-30T07:35:12;20.93;;;6.93;;
10430;SDS011;5262;59.958;17.726;2024-01-30T07:37:38;16.77;;;8.50;;
10430;SDS011;5262;59.958;17.726;2024-01-30T07:40:04;17.37;;;7.70;;
10430;SDS011;5262;59.958;17.726;2024-01-30T07:42:31;16.73;;;6.90;;
10430;SDS011;5262;59.958;17.726;2024-01-30T07:44:57;15.40;;;6.93;;
10430;SDS011;5262;59.958;17.726;2024-01-30T07:47:23;20.47;;;7.57;;
10430;SDS011;5262;59.958;17.726;2024-01-30T07:49:49;19.60;;;8.07;;
10430;SDS011;5262;59.958;17.726;2024-01-30T07:52:15;17.17;;;7.40;;
10430;SDS011;5262;59.958;17.726;2024-01-30T07:54:41;14.03;;;7.00;;
10430;SDS011;5262;59.958;17.726;2024-01-30T07:57:06;12.03;;;7.03;;
10430;SDS011;5262;59.958;17.726;2024-01-30T07:59:32;17.10;;;7.77;;
10430;SDS011;5262;59.958;17.726;2024-01-30T08:01:57;14.77;;;7.80;;
10430;SDS011;5262;59.958;17.726;2024-01-30T08:04:23;24.83;;;10.00;;
10430;SDS011;5262;59.958;17.726;2024-01-30T08:06:49;16.07;;;9.40;;
10430;SDS011;5262;59.958;17.726;2024-01-30T08:09:14;20.80;;;11.60;;
10430;SDS011;5262;59.958;17.726;2024-01-30T08:11:40;21.00;;;8.07;;
10430;SDS011;5262;59.958;17.726;2024-01-30T08:14:05;16.83;;;7.60;;
10430;SDS011;5262;59.958;17.726;2024-01-30T08:16:31;18.13;;;8.27;;
10430;SDS011;5262;59.958;17.726;2024-01-30T08:18:57;17.13;;;7.93;;
10430;SDS011;5262;59.958;17.726;2024-01-30T08:21:22;14.60;;;7.13;;
10430;SDS011;5262;59.958;17.726;2024-01-30T08:23:48;18.43;;;8.07;;
10430;SDS011;5262;59.958;17.726;2024-01-30T08:26:14;27.27;;;9.07;;
10430;SDS011;5262;59.958;17.726;2024-01-30T08:28:39;21.33;;;7.83;;
10430;SDS011;5262;59.958;17.726;2024-01-30T08:31:05;34.33;;;7.93;;
10430;SDS011;5262;59.958;17.726;2024-01-30T08:33:31;14.77;;;7.87;;
10430;SDS011;5262;59.958;17.726;2024-01-30T08:35:56;18.00;;;8.80;;
10430;SDS011;5262;59.958;17.726;2024-01-30T08:38:22;22.57;;;8.80;;
10430;SDS011;5262;59.958;17.726;2024-01-30T08:40:48;18.33;;;8.97;;
10430;SDS011;5262;59.958;17.726;2024-01-30T08:43:14;29.63;;;8.80;;
10430;SDS011;5262;59.958;17.726;2024-01-30T08:45:40;24.43;;;9.37;;
10430;SDS011;5262;59.958;17.726;2024-01-30T08:48:06;28.43;;;8.07;;
10430;SDS011;5262;59.958;17.726;2024-01-30T08:50:32;37.40;;;8.77;;
10430;SDS011;5262;59.958;17.726;2024-01-30T08:52:58;22.80;;;8.90;;
10430;SDS011;5262;59.958;17.726;2024-01-30T08:55:24;27.90;;;9.30;;
10430;SDS011;5262;59.958;17.726;2024-01-30T08:57:49;46.73;;;9.33;;
10430;SDS011;5262;59.958;17.726;2024-01-30T09:00:17;30.43;;;8.87;;
10430;SDS011;5262;59.958;17.726;2024-01-30T09:02:43;39.90;;;8.80;;
10430;SDS011;5262;59.958;17.726;2024-01-30T09:05:08;44.30;;;9.97;;
10430;SDS011;5262;59.958;17.726;2024-01-30T09:07:34;26.60;;;8.70;;
10430;SDS011;5262;59.958;17.726;2024-01-30T09:10:00;45.00;;;8.13;;
10430;SDS011;5262;59.958;17.726;2024-01-30T09:12:26;36.87;;;8.17;;
10430;SDS011;5262;59.958;17.726;2024-01-30T09:14:51;25.47;;;8.20;;
10430;SDS011;5262;59.958;17.726;2024-01-30T09:17:17;21.20;;;7.97;;
10430;SDS011;5262;59.958;17.726;2024-01-30T09:19:42;23.23;;;7.50;;
10430;SDS011;5262;59.958;17.726;2024-01-30T09:22:08;30.03;;;8.37;;
10430;SDS011;5262;59.958;17.726;2024-01-30T09:24:34;30.53;;;8.43;;
10430;SDS011;5262;59.958;17.726;2024-01-30T09:27:00;46.33;;;8.47;;
10430;SDS011;5262;59.958;17.726;2024-01-30T09:29:25;65.07;;;9.20;;
10430;SDS011;5262;59.958;17.726;2024-01-30T09:31:51;49.17;;;9.00;;
10430;SDS011;5262;59.958;17.726;2024-01-30T09:34:17;43.40;;;9.63;;
10430;SDS011;5262;59.958;17.726;2024-01-30T09:36:43;43.80;;;7.73;;
10430;SDS011;5262;59.958;17.726;2024-01-30T09:39:08;45.37;;;7.83;;
10430;SDS011;5262;59.958;17.726;2024-01-30T09:41:35;56.43;;;8.70;;
10430;SDS011;5262;59.958;17.726;2024-01-30T09:44:35;41.37;;;9.03;;
10430;SDS011;5262;59.958;17.726;2024-01-30T09:47:03;58.93;;;9.47;;
10430;SDS011;5262;59.958;17.726;2024-01-30T09:49:31;61.43;;;8.43;;
10430;SDS011;5262;59.958;17.726;2024-01-30T09:51:58;21.70;;;7.13;;
10430;SDS011;5262;59.958;17.726;2024-01-30T09:54:24;36.97;;;6.73;;
10430;SDS011;5262;59.958;17.726;2024-01-30T09:56:49;38.73;;;7.40;;
10430;SDS011;5262;59.958;17.726;2024-01-30T09:59:15;31.60;;;7.50;;
10430;SDS011;5262;59.958;17.726;2024-01-30T10:01:40;29.33;;;7.10;;
10430;SDS011;5262;59.958;17.726;2024-01-30T10:04:08;31.43;;;7.30;;
10430;SDS011;5262;59.958;17.726;2024-01-30T10:06:33;36.57;;;7.50;;
10430;SDS011;5262;59.958;17.726;2024-01-30T10:08:59;33.90;;;7.87;;
10430;SDS011;5262;59.958;17.726;2024-01-30T10:11:25;40.03;;;7.50;;
10430;SDS011;5262;59.958;17.726;2024-01-30T10:13:50;47.90;;;7.23;;
10430;SDS011;5262;59.958;17.726;2024-01-30T10:16:16;33.10;;;9.23;;
10430;SDS011;5262;59.958;17.726;2024-01-30T10:18:42;23.07;;;8.70;;
10430;SDS011;5262;59.958;17.726;2024-01-30T10:21:08;33.73;;;8.40;;
10430;SDS011;5262;59.958;17.726;2024-01-30T10:23:34;26.07;;;8.80;;
10430;SDS011;5262;59.958;17.726;2024-01-30T10:26:00;19.97;;;7.47;;
10430;SDS011;5262;59.958;17.726;2024-01-30T10:28:29;24.10;;;7.90;;
10430;SDS011;5262;59.958;17.726;2024-01-30T10:30:59;20.23;;;7.07;;
10430;SDS011;5262;59.958;17.726;2024-01-30T10:33:26;17.63;;;7.07;;
10430;SDS011;5262;59.958;17.726;2024-01-30T10:35:56;16.23;;;7.37;;
10430;SDS011;5262;59.958;17.726;2024-01-30T10:38:27;12.40;;;5.73;;
10430;SDS011;5262;59.958;17.726;2024-01-30T10:40:56;15.93;;;6.60;;
10430;SDS011;5262;59.958;17.726;2024-01-30T10:43:33;15.53;;;6.67;;
10430;SDS011;5262;59.958;17.726;2024-01-30T10:46:11;14.77;;;6.50;;
10430;SDS011;5262;59.958;17.726;2024-01-30T10:48:43;10.33;;;6.20;;
10430;SDS011;5262;59.958;17.726;2024-01-30T10:51:12;14.73;;;6.80;;
10430;SDS011;5262;59.958;17.726;2024-01-30T10:53:39;15.77;;;6.53;;
10430;SDS011;5262;59.958;17.726;2024-01-30T10:56:06;14.27;;;6.93;;
10430;SDS011;5262;59.958;17.726;2024-01-30T10:58:33;15.30;;;6.73;;
10430;SDS011;5262;59.958;17.726;2024-01-30T11:00:58;15.27;;;6.27;;
10430;SDS011;5262;59.958;17.726;2024-01-30T11:03:24;18.53;;;6.60;;
10430;SDS011;5262;59.958;17.726;2024-01-30T11:05:50;17.07;;;7.47;;
10430;SDS011;5262;59.958;17.726;2024-01-30T11:08:26;15.10;;;7.67;;
10430;SDS011;5262;59.958;17.726;2024-01-30T11:10:56;16.30;;;6.63;;
10430;SDS011;5262;59.958;17.726;2024-01-30T11:13:27;30.23;;;7.67;;
10430;SDS011;5262;59.958;17.726;2024-01-30T11:15:54;20.40;;;6.90;;
10430;SDS011;5262;59.958;17.726;2024-01-30T11:18:26;23.83;;;6.63;;
10430;SDS011;5262;59.958;17.726;2024-01-30T11:20:56;33.40;;;7.33;;
10430;SDS011;5262;59.958;17.726;2024-01-30T11:23:23;25.60;;;7.70;;
10430;SDS011;5262;59.958;17.726;2024-01-30T11:25:48;17.73;;;7.53;;
10430;SDS011;5262;59.958;17.726;2024-01-30T11:28:17;23.97;;;6.40;;
10430;SDS011;5262;59.958;17.726;2024-01-30T11:30:43;37.37;;;6.47;;
10430;SDS011;5262;59.958;17.726;2024-01-30T11:33:10;32.57;;;7.10;;
10430;SDS011;5262;59.958;17.726;2024-01-30T11:35:37;32.00;;;6.97;;
10430;SDS011;5262;59.958;17.726;2024-01-30T11:38:04;24.63;;;5.73;;
10430;SDS011;5262;59.958;17.726;2024-01-30T11:40:31;21.80;;;7.50;;
10430;SDS011;5262;59.958;17.726;2024-01-30T11:42:59;63.57;;;7.20;;
10430;SDS011;5262;59.958;17.726;2024-01-30T11:45:29;21.80;;;6.40;;
10430;SDS011;5262;59.958;17.726;2024-01-30T11:47:55;48.83;;;8.07;;
10430;SDS011;5262;59.958;17.726;2024-01-30T11:50:22;71.73;;;8.53;;
10430;SDS011;5262;59.958;17.726;2024-01-30T11:52:48;37.80;;;7.67;;
10430;SDS011;5262;59.958;17.726;2024-01-30T11:55:14;29.20;;;8.23;;
10430;SDS011;5262;59.958;17.726;2024-01-30T11:57:40;15.63;;;7.00;;
10430;SDS011;5262;59.958;17.726;2024-01-30T12:00:06;29.07;;;8.47;;
10430;SDS011;5262;59.958;17.726;2024-01-30T12:02:39;41.53;;;7.60;;
10430;SDS011;5262;59.958;17.726;2024-01-30T12:05:08;30.83;;;7.57;;
10430;SDS011;5262;59.958;17.726;2024-01-30T12:07:34;22.40;;;7.83;;
10430;SDS011;5262;59.958;17.726;2024-01-30T12:10:01;31.23;;;7.00;;
10430;SDS011;5262;59.958;17.726;2024-01-30T12:12:28;32.43;;;8.57;;
10430;SDS011;5262;59.958;17.726;2024-01-30T12:14:55;16.30;;;7.00;;
10430;SDS011;5262;59.958;17.726;2024-01-30T12:17:28;26.80;;;7.40;;
10430;SDS011;5262;59.958;17.726;2024-01-30T12:20:12;19.63;;;7.47;;
10430;SDS011;5262;59.958;17.726;2024-01-30T12:22:46;19.50;;;7.30;;
10430;SDS011;5262;59.958;17.726;2024-01-30T12:25:14;28.27;;;6.80;;
10430;SDS011;5262;59.958;17.726;2024-01-30T12:27:44;21.67;;;7.80;;
10430;SDS011;5262;59.958;17.726;2024-01-30T12:30:12;17.53;;;6.83;;
10430;SDS011;5262;59.958;17.726;2024-01-30T12:32:44;18.67;;;6.90;;
10430;SDS011;5262;59.958;17.726;2024-01-30T12:35:18;13.00;;;6.70;;
10430;SDS011;5262;59.958;17.726;2024-01-30T12:37:45;22.23;;;6.67;;
10430;SDS011;5262;59.958;17.726;2024-01-30T12:40:11;20.10;;;7.17;;
10430;SDS011;5262;59.958;17.726;2024-01-30T12:42:39;12.23;;;7.03;;
10430;SDS011;5262;59.958;17.726;2024-01-30T12:45:07;13.67;;;6.57;;
10430;SDS011;5262;59.958;17.726;2024-01-30T12:47:33;15.27;;;7.23;;
10430;SDS011;5262;59.958;17.726;2024-01-30T12:49:58;15.17;;;6.97;;
10430;SDS011;5262;59.958;17.726;2024-01-30T12:52:24;14.73;;;8.03;;
10430;SDS011;5262;59.958;17.726;2024-01-30T12:54:50;33.53;;;7.67;;
10430;SDS011;5262;59.958;17.726;2024-01-30T12:57:16;13.20;;;6.90;;
10430;SDS011;5262;59.958;17.726;2024-01-30T12:59:43;13.57;;;6.47;;
10430;SDS011;5262;59.958;17.726;2024-01-30T13:02:09;11.03;;;7.10;;
10430;SDS011;5262;59.958;17.726;2024-01-30T13:04:35;16.97;;;7.67;;
10430;SDS011;5262;59.958;17.726;2024-01-30T13:07:01;18.80;;;7.40;;
10430;SDS011;5262;59.958;17.726;2024-01-30T13:09:29;12.33;;;7.07;;
10430;SDS011;5262;59.958;17.726;2024-01-30T13:11:56;13.43;;;7.60;;
10430;SDS011;5262;59.958;17.726;2024-01-30T13:14:22;13.43;;;7.13;;
10430;SDS011;5262;59.958;17.726;2024-01-30T13:16:49;17.33;;;7.70;;
10430;SDS011;5262;59.958;17.726;2024-01-30T13:19:14;14.73;;;7.30;;
10430;SDS011;5262;59.958;17.726;2024-01-30T13:21:41;23.20;;;7.80;;
10430;SDS011;5262;59.958;17.726;2024-01-30T13:24:06;20.63;;;8.53;;
10430;SDS011;5262;59.958;17.726;2024-01-30T13:26:32;17.13;;;7.37;;
10430;SDS011;5262;59.958;17.726;2024-01-30T13:28:58;16.13;;;7.77;;
10430;SDS011;5262;59.958;17.726;2024-01-30T13:31:23;16.77;;;8.23;;
10430;SDS011;5262;59.958;17.726;2024-01-30T13:33:50;25.07;;;7.93;;
10430;SDS011;5262;59.958;17.726;2024-01-30T13:36:15;12.57;;;7.00;;
10430;SDS011;5262;59.958;17.726;2024-01-30T13:38:41;15.10;;;7.80;;
10430;SDS011;5262;59.958;17.726;2024-01-30T13:41:07;14.93;;;7.83;;
10430;SDS011;5262;59.958;17.726;2024-01-30T13:43:32;21.40;;;8.40;;
10430;SDS011;5262;59.958;17.726;2024-01-30T13:45:58;17.13;;;8.30;;
10430;SDS011;5262;59.958;17.726;2024-01-30T13:48:24;15.53;;;7.90;;
10430;SDS011;5262;59.958;17.726;2024-01-30T13:50:50;19.93;;;8.07;;
10430;SDS011;5262;59.958;17.726;2024-01-30T13:53:16;20.50;;;7.33;;
10430;SDS011;5262;59.958;17.726;2024-01-30T13:55:42;20.00;;;8.53;;
10430;SDS011;5262;59.958;17.726;2024-01-30T13:58:07;18.07;;;8.20;;
10430;SDS011;5262;59.958;17.726;2024-01-30T14:00:33;12.70;;;7.57;;
10430;SDS011;5262;59.958;17.726;2024-01-30T14:02:59;23.47;;;8.13;;
10430;SDS011;5262;59.958;17.726;2024-01-30T14:05:25;17.97;;;7.93;;
10430;SDS011;5262;59.958;17.726;2024-01-30T14:07:55;28.40;;;8.03;;
10430;SDS011;5262;59.958;17.726;2024-01-30T14:10:22;35.63;;;9.20;;
10430;SDS011;5262;59.958;17.726;2024-01-30T14:12:48;22.10;;;8.30;;
10430;SDS011;5262;59.958;17.726;2024-01-30T14:15:14;20.07;;;8.60;;
10430;SDS011;5262;59.958;17.726;2024-01-30T14:17:40;33.77;;;9.83;;
10430;SDS011;5262;59.958;17.726;2024-01-30T14:20:06;24.53;;;10.07;;
10430;SDS011;5262;59.958;17.726;2024-01-30T14:22:33;23.30;;;8.17;;
10430;SDS011;5262;59.958;17.726;2024-01-30T14:25:02;37.87;;;8.67;;
10430;SDS011;5262;59.958;17.726;2024-01-30T14:27:32;41.77;;;8.83;;
10430;SDS011;5262;59.958;17.726;2024-01-30T14:29:57;25.40;;;8.80;;